Time;durP1;ratioP1;P1;durP2;ratioP2;P2;SDS_P1;SDS_P2;PMS_P1;PMS_P2;Temp;Humidity;BMP_temperature;BMP_pressure;BME280_temperature;BME280_humidity;BME280_pressure;Samples;Min_cycle;Max_cycle;Signal;HPM_P1;HPM_P2
2022/09/25 00:00:48;;;;;;;8.63;7.83;;;18.10;82.80;;;-142.21;100.00;112049.66;5053915;28;20460;-70
2022/09/25 00:03:17;;;;;;;8.40;7.40;;;18.10;82.80;;;-142.21;100.00;112049.66;5044334;28;20433;-69
2022/09/25 00:05:47;;;;;;;8.53;7.73;;;18.10;82.80;;;-142.21;100.00;112049.66;5050175;28;20447;-68
2022/09/25 00:08:17;;;;;;;9.60;8.17;;;18.10;83.20;;;-142.21;100.00;112049.66;5053351;28;20524;-70
2022/09/25 00:10:47;;;;;;;9.30;8.37;;;18.10;83.20;;;-142.21;100.00;112049.66;5053765;28;20428;-70
2022/09/25 00:13:15;;;;;;;8.60;7.70;;;18.10;82.60;;;-142.21;100.00;112049.66;5050374;28;20472;-70
2022/09/25 00:15:47;;;;;;;9.57;8.57;;;18.10;82.60;;;-142.21;100.00;112049.66;5053233;28;20449;-69
2022/09/25 00:18:14;;;;;;;10.73;8.43;;;18.10;82.80;;;-142.21;100.00;112049.66;5044706;28;20780;-69
2022/09/25 00:20:42;;;;;;;8.63;7.73;;;18.10;83.00;;;-142.21;100.00;112049.66;5033917;28;21000;-69
2022/09/25 00:23:09;;;;;;;9.97;8.83;;;18.10;83.10;;;-142.21;100.00;112049.66;5050997;28;20508;-69
2022/09/25 00:25:39;;;;;;;9.17;8.10;;;18.10;83.00;;;-142.21;100.00;112049.66;5053476;28;20444;-69
2022/09/25 00:28:06;;;;;;;10.40;8.57;;;18.10;82.90;;;-142.21;100.00;112049.66;5051043;28;20747;-69
2022/09/25 00:30:33;;;;;;;9.73;8.10;;;18.10;83.00;;;-142.21;100.00;112049.66;5033381;28;20445;-69
2022/09/25 00:33:00;;;;;;;11.27;8.80;;;18.10;83.20;;;-142.21;100.00;112049.66;5044442;28;20477;-69
2022/09/25 00:35:28;;;;;;;9.73;8.50;;;18.10;83.40;;;-142.21;100.00;112049.66;5052665;28;20448;-68
2022/09/25 00:37:55;;;;;;;9.70;8.70;;;18.10;82.90;;;-142.21;100.00;112049.66;5053298;28;20448;-68
2022/09/25 00:40:23;;;;;;;10.30;8.40;;;18.10;83.00;;;-142.21;100.00;112049.66;5053644;28;20761;-69
2022/09/25 00:42:51;;;;;;;11.97;9.13;;;18.10;83.20;;;-142.21;100.00;112049.66;5050463;28;20844;-69
2022/09/25 00:45:20;;;;;;;9.40;8.37;;;18.10;83.20;;;-142.21;100.00;112049.66;5042151;28;20538;-69
2022/09/25 00:47:59;;;;;;;11.00;8.80;;;18.00;82.80;;;-142.21;100.00;112049.66;5053252;28;20443;-69
2022/09/25 00:50:33;;;;;;;9.90;8.83;;;18.00;83.00;;;-142.21;100.00;112049.66;5052918;28;20440;-68
2022/09/25 00:53:09;;;;;;;10.00;8.93;;;18.00;83.50;;;-142.21;100.00;112049.66;5038417;28;20474;-69
2022/09/25 00:55:39;;;;;;;10.53;8.60;;;18.00;83.40;;;-142.21;100.00;112049.66;5053106;28;20444;-68
2022/09/25 00:58:10;;;;;;;10.17;8.67;;;18.00;83.40;;;-142.21;100.00;112049.66;5051724;28;20444;-69
2022/09/25 01:00:37;;;;;;;12.33;9.20;;;18.00;83.20;;;-142.21;100.00;112049.66;5052387;28;20523;-68
2022/09/25 01:03:07;;;;;;;10.43;8.40;;;17.90;83.20;;;-142.21;100.00;112049.66;5051393;28;20472;-69
2022/09/25 01:05:38;;;;;;;9.00;8.10;;;17.90;83.50;;;-142.21;100.00;112049.66;5053051;28;20463;-68
2022/09/25 01:08:11;;;;;;;9.47;7.97;;;17.90;83.60;;;-142.21;100.00;112049.66;5051157;28;20436;-67
2022/09/25 01:10:41;;;;;;;12.50;7.97;;;17.90;83.60;;;-142.21;100.00;112049.66;5050656;28;20444;-68
2022/09/25 01:13:11;;;;;;;8.97;7.90;;;17.90;83.50;;;-142.21;100.00;112049.66;5043652;28;21053;-68
2022/09/25 01:15:47;;;;;;;9.80;8.80;;;17.90;83.40;;;-142.21;100.00;112049.66;5046607;28;20442;-68
2022/09/25 01:18:32;;;;;;;10.17;8.30;;;17.90;83.40;;;-142.21;100.00;112049.66;5051763;28;20768;-69
2022/09/25 01:21:19;;;;;;;8.57;7.67;;;17.90;83.20;;;-142.21;100.00;112049.66;5045112;28;20477;-69
2022/09/25 01:24:43;;;;;;;9.40;8.40;;;17.90;83.50;;;-142.21;100.00;112049.66;5040366;28;20436;-68
2022/09/25 01:27:37;;;;;;;8.77;7.87;;;17.80;83.40;;;-142.21;100.00;112049.66;5051590;28;20436;-68
2022/09/25 01:30:12;;;;;;;9.07;8.17;;;17.80;83.80;;;-142.21;100.00;112049.66;5051289;28;20463;-67
2022/09/25 01:32:56;;;;;;;9.33;7.80;;;17.80;83.60;;;-142.21;100.00;112049.66;5051743;28;20463;-68
2022/09/25 01:35:38;;;;;;;11.63;8.40;;;17.90;83.70;;;-142.21;100.00;112049.66;5051966;28;20806;-69
2022/09/25 01:38:23;;;;;;;9.37;8.20;;;17.90;83.80;;;-142.21;100.00;112049.66;5051860;28;20428;-68
2022/09/25 01:41:01;;;;;;;9.83;7.77;;;17.80;83.50;;;-142.21;100.00;112049.66;5052071;28;20448;-68
2022/09/25 01:43:36;;;;;;;10.87;8.07;;;17.90;83.50;;;-142.21;100.00;112049.66;5051450;28;20428;-68
2022/09/25 01:46:12;;;;;;;8.80;7.90;;;17.90;83.20;;;-142.21;100.00;112049.66;5048365;28;20458;-68
2022/09/25 01:48:44;;;;;;;8.97;7.97;;;17.80;83.20;;;-142.21;100.00;112049.66;5052355;28;20458;-68
2022/09/25 01:51:22;;;;;;;9.50;8.50;;;17.90;83.30;;;-142.21;100.00;112049.66;5051543;28;20459;-68
2022/09/25 01:53:55;;;;;;;10.80;8.30;;;17.90;83.40;;;-142.21;100.00;112049.66;5038809;28;20483;-68
2022/09/25 01:56:31;;;;;;;9.13;8.17;;;17.90;83.30;;;-142.21;100.00;112049.66;5049739;28;20451;-68
2022/09/25 01:59:08;;;;;;;10.57;8.37;;;17.80;83.30;;;-142.21;100.00;112049.66;5050829;28;20444;-68
2022/09/25 02:01:42;;;;;;;11.03;9.07;;;17.80;83.50;;;-142.21;100.00;112049.66;5052113;28;20823;-69
2022/09/25 02:04:17;;;;;;;9.40;7.97;;;17.80;83.90;;;-142.21;100.00;112049.66;5049939;28;20440;-68
2022/09/25 02:06:49;;;;;;;9.20;8.30;;;17.80;84.00;;;-142.21;100.00;112049.66;5051432;28;20783;-70
2022/09/25 02:09:26;;;;;;;9.83;8.83;;;17.80;84.10;;;-142.21;100.00;112049.66;5050796;28;20463;-68
2022/09/25 02:12:01;;;;;;;10.47;9.07;;;17.90;84.10;;;-142.21;100.00;112049.66;5048730;28;20957;-69
2022/09/25 02:14:37;;;;;;;11.70;9.40;;;17.90;83.90;;;-142.21;100.00;112049.66;5040745;28;20472;-70
2022/09/25 02:17:12;;;;;;;10.17;9.13;;;17.90;84.10;;;-142.21;100.00;112049.66;5051026;28;20471;-70
2022/09/25 02:22:33;;;;;;;11.17;9.73;;;17.80;83.60;;;-142.21;100.00;112049.66;5048949;28;20593;-68
2022/09/25 02:25:10;;;;;;;11.00;9.30;;;17.80;83.80;;;-142.21;100.00;112049.66;5045026;28;20437;-68
2022/09/25 02:27:37;;;;;;;12.00;8.50;;;17.80;84.70;;;-142.21;100.00;112049.66;5039313;28;20764;-69
2022/09/25 02:30:06;;;;;;;11.43;9.63;;;17.80;83.80;;;-142.21;100.00;112049.66;5051118;28;20436;-70
2022/09/25 02:32:34;;;;;;;10.13;9.13;;;17.80;84.00;;;-142.21;100.00;112049.66;5041039;28;20991;-71
2022/09/25 02:35:01;;;;;;;10.27;9.10;;;17.80;84.00;;;-142.21;100.00;112049.66;5051638;28;20484;-70
2022/09/25 02:37:29;;;;;;;11.63;9.30;;;17.80;83.80;;;-142.21;100.00;112049.66;5055725;28;20483;-70
2022/09/25 02:40:01;;;;;;;9.83;8.73;;;17.80;83.80;;;-142.21;100.00;112049.66;5055121;28;20447;-70
2022/09/25 02:42:40;;;;;;;13.67;10.17;;;17.80;83.70;;;-142.21;100.00;112049.66;5055033;28;20824;-70
2022/09/25 02:45:22;;;;;;;13.47;10.00;;;17.80;84.00;;;-142.21;100.00;112049.66;5037267;28;20531;-69
2022/09/25 02:48:08;;;;;;;12.53;9.47;;;17.70;84.30;;;-142.21;100.00;112049.66;5035662;28;20431;-71
2022/09/25 02:50:47;;;;;;;12.47;9.40;;;17.70;84.40;;;-142.21;100.00;112049.66;5039448;28;20440;-70
2022/09/25 02:53:22;;;;;;;10.57;9.43;;;17.80;84.20;;;-142.21;100.00;112049.66;5041581;28;20440;-70
2022/09/25 02:55:56;;;;;;;10.77;9.67;;;17.70;84.30;;;-142.21;100.00;112049.66;5040743;28;20435;-70
2022/09/25 02:58:31;;;;;;;9.93;8.93;;;17.80;84.10;;;-142.21;100.00;112049.66;5055625;28;20523;-70
2022/09/25 03:01:03;;;;;;;15.10;9.90;;;17.70;84.20;;;-142.21;100.00;112049.66;5054957;28;20439;-72
2022/09/25 03:03:38;;;;;;;11.17;9.57;;;17.70;84.30;;;-142.21;100.00;112049.66;5040707;28;20448;-71
2022/09/25 03:06:09;;;;;;;11.33;9.90;;;17.80;84.60;;;-142.21;100.00;112049.66;5052687;28;20542;-72
2022/09/25 03:08:48;;;;;;;10.93;9.40;;;17.70;84.40;;;-142.21;100.00;112049.66;5042561;28;20456;-71
2022/09/25 03:11:18;;;;;;;11.90;9.70;;;17.70;85.30;;;-142.21;100.00;112049.66;5033254;28;20425;-70
2022/09/25 03:13:54;;;;;;;11.20;9.37;;;17.80;84.50;;;-142.21;100.00;112049.66;5051102;28;20472;-70
2022/09/25 03:16:34;;;;;;;10.80;9.67;;;17.80;84.20;;;-142.21;100.00;112049.66;5054394;28;20519;-71
2022/09/25 03:19:03;;;;;;;12.47;10.37;;;17.80;84.50;;;-142.21;100.00;112049.66;5054119;28;20439;-70
2022/09/25 03:21:31;;;;;;;11.33;10.10;;;17.80;84.50;;;-142.21;100.00;112049.66;5055251;28;20447;-71
2022/09/25 03:23:58;;;;;;;13.80;10.50;;;17.80;84.40;;;-142.21;100.00;112049.66;5036468;28;20836;-71
2022/09/25 03:26:27;;;;;;;11.87;10.23;;;17.70;84.40;;;-142.21;100.00;112049.66;5034756;28;20472;-71
2022/09/25 03:29:01;;;;;;;12.13;10.27;;;17.80;84.70;;;-142.21;100.00;112049.66;5035056;28;20448;-71
2022/09/25 03:31:29;;;;;;;14.67;10.13;;;17.80;84.80;;;-142.21;100.00;112049.66;5052160;28;20453;-70
2022/09/25 03:33:56;;;;;;;12.53;10.73;;;17.80;84.50;;;-142.21;100.00;112049.66;5054585;28;20483;-71
2022/09/25 03:36:27;;;;;;;11.17;10.07;;;17.80;84.50;;;-142.21;100.00;112049.66;5054744;28;20452;-71
2022/09/25 03:38:58;;;;;;;11.77;10.57;;;17.80;84.40;;;-142.21;100.00;112049.66;5054206;28;20897;-70
2022/09/25 03:41:27;;;;;;;15.13;11.23;;;17.80;84.30;;;-142.21;100.00;112049.66;5039669;28;20453;-70
2022/09/25 03:43:55;;;;;;;12.73;11.43;;;17.80;84.30;;;-142.21;100.00;112049.66;5053811;28;20530;-71
2022/09/25 03:46:37;;;;;;;14.03;11.37;;;17.80;84.10;;;-142.21;100.00;112049.66;5053074;28;20448;-70
2022/09/25 03:49:04;;;;;;;12.20;10.17;;;17.80;84.30;;;-142.21;100.00;112049.66;5053755;28;20432;-71
2022/09/25 03:51:34;;;;;;;11.47;10.17;;;17.80;84.20;;;-142.21;100.00;112049.66;5052946;28;20855;-70
2022/09/25 03:54:02;;;;;;;11.13;9.73;;;17.80;84.40;;;-142.21;100.00;112049.66;5034547;28;20578;-71
2022/09/25 03:56:31;;;;;;;11.53;9.70;;;17.80;84.40;;;-142.21;100.00;112049.66;5040882;28;20449;-71
2022/09/25 03:58:58;;;;;;;12.83;11.13;;;17.80;84.50;;;-142.21;100.00;112049.66;5042686;28;20452;-71
2022/09/25 04:01:27;;;;;;;11.83;10.43;;;17.80;84.10;;;-142.21;100.00;112049.66;5053686;28;20487;-70
2022/09/25 04:03:55;;;;;;;11.87;9.97;;;17.80;84.30;;;-142.21;100.00;112049.66;5034609;28;20770;-71
2022/09/25 04:06:25;;;;;;;12.27;10.13;;;17.80;84.20;;;-142.21;100.00;112049.66;5033564;28;20437;-70
2022/09/25 04:08:54;;;;;;;13.17;10.60;;;17.80;84.40;;;-142.21;100.00;112049.66;5051183;28;20455;-70
2022/09/25 04:11:24;;;;;;;13.27;10.37;;;17.80;84.50;;;-142.21;100.00;112049.66;5053036;28;20440;-70
2022/09/25 04:13:52;;;;;;;11.77;9.87;;;17.80;84.50;;;-142.21;100.00;112049.66;5049376;28;20483;-70
2022/09/25 04:16:19;;;;;;;11.07;9.97;;;17.80;84.30;;;-142.21;100.00;112049.66;5040727;28;20983;-72
2022/09/25 04:18:46;;;;;;;12.73;10.07;;;17.80;84.30;;;-142.21;100.00;112049.66;5043476;28;20933;-71
2022/09/25 04:21:15;;;;;;;10.80;9.67;;;17.80;84.60;;;-142.21;100.00;112049.66;5051389;28;20444;-71
2022/09/25 04:24:46;;;;;;;10.77;9.10;;;17.80;84.60;;;-142.21;100.00;112049.66;5050884;28;20450;-71
2022/09/25 04:26:31;;;;;;;10.93;8.53;;;17.70;84.70;;;-142.21;100.00;112049.66;5033609;28;20445;-71
2022/09/25 04:29:00;;;;;;;8.30;7.40;;;17.50;85.20;;;-142.21;100.00;112049.66;5033566;28;20444;-73
2022/09/25 04:31:27;;;;;;;8.53;7.70;;;17.40;84.50;;;-142.21;100.00;112049.66;5050880;28;20491;-71
2022/09/25 04:33:54;;;;;;;9.20;8.07;;;17.40;85.00;;;-142.21;100.00;112049.66;5050579;28;20881;-71
2022/09/25 04:36:21;;;;;;;8.97;8.07;;;17.40;84.90;;;-142.21;100.00;112049.66;5052220;28;20456;-72
2022/09/25 04:38:49;;;;;;;10.87;7.73;;;17.30;85.30;;;-142.21;100.00;112049.66;5053027;28;20444;-71
2022/09/25 04:41:18;;;;;;;8.67;7.57;;;17.30;85.40;;;-142.21;100.00;112049.66;5052706;28;20445;-70
2022/09/25 04:43:47;;;;;;;9.40;8.37;;;17.40;85.40;;;-142.21;100.00;112049.66;5053091;28;20460;-71
2022/09/25 04:46:16;;;;;;;8.33;7.47;;;17.50;85.40;;;-142.21;100.00;112049.66;5052672;28;20447;-71
2022/09/25 04:48:46;;;;;;;10.00;7.23;;;17.50;84.90;;;-142.21;100.00;112049.66;5053287;28;20448;-71
2022/09/25 04:51:13;;;;;;;7.93;7.13;;;17.50;84.50;;;-142.21;100.00;112049.66;5051742;28;20921;-71
2022/09/25 04:53:40;;;;;;;8.60;6.77;;;17.50;84.50;;;-142.21;100.00;112049.66;5051163;28;20445;-72
2022/09/25 04:56:10;;;;;;;8.43;7.30;;;17.60;84.40;;;-142.21;100.00;112049.66;5049950;28;20939;-72
2022/09/25 04:58:38;;;;;;;9.77;7.40;;;17.60;84.40;;;-142.21;100.00;112049.66;5052880;28;20455;-72
2022/09/25 05:01:09;;;;;;;8.73;7.83;;;17.60;84.10;;;-142.21;100.00;112049.66;5051362;28;20974;-71
2022/09/25 05:03:36;;;;;;;8.83;7.27;;;17.60;84.00;;;-142.21;100.00;112049.66;5050740;28;20531;-71
2022/09/25 05:06:04;;;;;;;11.03;7.17;;;17.60;83.80;;;-142.21;100.00;112049.66;5048548;28;20796;-71
2022/09/25 05:08:31;;;;;;;8.80;7.90;;;17.50;84.10;;;-142.21;100.00;112049.66;5051278;28;20454;-71
2022/09/25 05:10:59;;;;;;;8.53;7.73;;;17.60;84.50;;;-142.21;100.00;112049.66;5052243;28;20509;-70
2022/09/25 05:13:26;;;;;;;8.77;7.47;;;17.60;84.40;;;-142.21;100.00;112049.66;5051541;28;20437;-69
2022/09/25 05:15:57;;;;;;;8.87;7.60;;;17.60;84.10;;;-142.21;100.00;112049.66;5037673;28;20480;-72
2022/09/25 05:18:26;;;;;;;8.63;7.63;;;17.60;84.30;;;-142.21;100.00;112049.66;5046788;28;20539;-72
2022/09/25 05:20:53;;;;;;;9.27;7.87;;;17.60;84.50;;;-142.21;100.00;112049.66;5052562;28;20852;-71
2022/09/25 05:23:22;;;;;;;9.27;8.37;;;17.60;84.40;;;-142.21;100.00;112049.66;5052062;28;20444;-71
2022/09/25 05:25:53;;;;;;;10.47;8.60;;;17.60;84.40;;;-142.21;100.00;112049.66;5043161;28;20448;-71
2022/09/25 05:28:22;;;;;;;9.43;8.53;;;17.60;84.40;;;-142.21;100.00;112049.66;5051883;28;20460;-71
2022/09/25 05:30:49;;;;;;;9.57;8.57;;;17.50;84.30;;;-142.21;100.00;112049.66;5053197;28;20533;-71
2022/09/25 05:33:17;;;;;;;9.67;8.67;;;17.50;84.50;;;-142.21;100.00;112049.66;5051877;28;20461;-70
2022/09/25 05:35:47;;;;;;;8.93;8.03;;;17.60;84.80;;;-142.21;100.00;112049.66;5032906;28;20843;-71
2022/09/25 05:38:14;;;;;;;10.10;8.50;;;17.60;84.90;;;-142.21;100.00;112049.66;5046678;28;20455;-71
2022/09/25 05:40:42;;;;;;;8.57;7.67;;;17.60;84.80;;;-142.21;100.00;112049.66;5052285;28;20455;-71
2022/09/25 05:43:09;;;;;;;10.90;8.03;;;17.60;84.60;;;-142.21;100.00;112049.66;5044666;28;20449;-71
2022/09/25 05:45:36;;;;;;;9.53;7.30;;;17.60;84.50;;;-142.21;100.00;112049.66;5051537;28;20448;-71
2022/09/25 05:48:07;;;;;;;8.27;6.47;;;17.70;84.50;;;-142.21;100.00;112049.66;5051732;28;20644;-71
2022/09/25 05:50:36;;;;;;;6.83;6.13;;;17.60;84.20;;;-142.21;100.00;112049.66;5051614;28;20429;-71
2022/09/25 05:53:06;;;;;;;6.60;5.70;;;17.60;84.80;;;-142.21;100.00;112049.66;5035439;28;20807;-71
2022/09/25 05:55:33;;;;;;;6.20;5.60;;;17.70;84.20;;;-142.21;100.00;112049.66;5035214;28;20963;-71
2022/09/25 05:58:01;;;;;;;6.30;5.70;;;17.70;84.10;;;-142.21;100.00;112049.66;5051346;28;20531;-71
2022/09/25 06:00:31;;;;;;;6.50;5.67;;;17.70;84.10;;;-142.21;100.00;112049.66;5051878;28;20452;-71
2022/09/25 06:02:58;;;;;;;7.93;5.33;;;17.70;84.10;;;-142.21;100.00;112049.66;5049336;28;20482;-70
2022/09/25 06:05:25;;;;;;;5.97;5.33;;;17.70;84.70;;;-142.21;100.00;112049.66;5049894;28;20449;-70
2022/09/25 06:07:54;;;;;;;5.77;5.20;;;17.70;84.20;;;-142.21;100.00;112049.66;5051697;28;20445;-71
2022/09/25 06:10:25;;;;;;;6.40;5.20;;;17.60;83.90;;;-142.21;100.00;112049.66;5050437;28;20892;-70
2022/09/25 06:12:57;;;;;;;5.10;4.50;;;17.60;83.80;;;-142.21;100.00;112049.66;5050870;28;20447;-70
2022/09/25 06:15:24;;;;;;;5.07;4.47;;;17.70;84.70;;;-142.21;100.00;112049.66;5051172;28;20983;-70
2022/09/25 06:17:52;;;;;;;5.00;4.23;;;17.60;83.80;;;-142.21;100.00;112049.66;5049514;28;20451;-70
2022/09/25 06:20:20;;;;;;;4.90;4.37;;;17.70;83.80;;;-142.21;100.00;112049.66;5050528;28;20510;-70
2022/09/25 06:22:53;;;;;;;5.10;4.60;;;17.70;83.80;;;-142.21;100.00;112049.66;5051333;28;20456;-71
2022/09/25 06:25:20;;;;;;;5.13;4.63;;;17.60;83.90;;;-142.21;100.00;112049.66;5045316;28;20459;-71
2022/09/25 06:27:52;;;;;;;4.90;4.40;;;17.60;83.90;;;-142.21;100.00;112049.66;5051617;28;20939;-71
2022/09/25 06:30:20;;;;;;;7.47;4.80;;;17.60;83.90;;;-142.21;100.00;112049.66;5050102;28;20535;-71
2022/09/25 06:32:49;;;;;;;4.40;4.00;;;17.60;83.90;;;-142.21;100.00;112049.66;5048081;28;20444;-70
2022/09/25 06:35:19;;;;;;;5.60;4.00;;;17.70;84.20;;;-142.21;100.00;112049.66;5064005;28;20487;-72
2022/09/25 06:37:47;;;;;;;4.10;3.67;;;17.70;84.00;;;-142.21;100.00;112049.66;5048783;28;20448;-71
2022/09/25 06:40:14;;;;;;;4.13;3.53;;;17.70;83.90;;;-142.21;100.00;112049.66;5045889;28;20197;-71
2022/09/25 06:42:42;;;;;;;4.07;3.70;;;17.70;83.50;;;-142.21;100.00;112049.66;5049022;28;20988;-72
2022/09/25 06:45:11;;;;;;;4.63;3.50;;;17.70;83.50;;;-142.21;100.00;112049.66;5045788;28;20444;-70
2022/09/25 06:47:38;;;;;;;3.80;3.50;;;17.70;83.60;;;-142.21;100.00;112049.66;5051104;28;20448;-70
2022/09/25 06:50:07;;;;;;;4.87;3.50;;;17.70;83.30;;;-142.21;100.00;112049.66;5050473;28;20444;-71
2022/09/25 06:52:40;;;;;;;3.77;3.37;;;17.70;83.20;;;-142.21;100.00;112049.66;5048156;28;20537;-71
2022/09/25 06:55:08;;;;;;;4.00;3.03;;;17.60;82.90;;;-142.21;100.00;112049.66;5048900;28;21002;-70
2022/09/25 06:57:36;;;;;;;4.60;3.37;;;17.60;82.90;;;-142.21;100.00;112049.66;5050890;28;20444;-70
2022/09/25 07:00:04;;;;;;;3.20;2.90;;;17.60;83.50;;;-142.21;100.00;112049.66;5050770;28;20852;-71
2022/09/25 07:05:18;;;;;;;3.43;2.93;;;17.60;83.50;;;-142.21;100.00;112049.66;5030820;28;20745;-71
2022/09/25 07:07:46;;;;;;;3.50;3.20;;;17.60;83.60;;;-142.21;100.00;112049.66;5048300;28;20455;-71
2022/09/25 07:10:14;;;;;;;3.50;3.20;;;17.70;83.70;;;-142.21;100.00;112049.66;5050651;28;20861;-71
2022/09/25 07:12:42;;;;;;;3.87;3.50;;;17.70;84.50;;;-142.21;100.00;112049.66;5051330;28;20451;-71
2022/09/25 07:15:10;;;;;;;3.53;3.23;;;17.70;84.30;;;-142.21;100.00;112049.66;5050060;28;20512;-71
2022/09/25 07:17:44;;;;;;;3.60;3.30;;;17.70;83.60;;;-142.21;100.00;112049.66;5050505;28;20515;-71
2022/09/25 07:20:14;;;;;;;3.23;2.80;;;17.70;83.60;;;-142.21;100.00;112049.66;5050674;28;20522;-71
2022/09/25 07:22:45;;;;;;;3.67;3.37;;;17.70;83.60;;;-142.21;100.00;112049.66;5053265;28;20448;-71
2022/09/25 07:25:13;;;;;;;4.27;2.80;;;17.70;83.50;;;-142.21;100.00;112049.66;5054277;28;20432;-71
2022/09/25 07:27:40;;;;;;;3.90;3.40;;;17.70;83.40;;;-142.21;100.00;112049.66;5049618;28;20540;-70
2022/09/25 07:30:09;;;;;;;3.63;3.33;;;17.70;83.60;;;-142.21;100.00;112049.66;5043403;28;20514;-71
2022/09/25 07:32:36;;;;;;;3.30;3.00;;;17.70;83.30;;;-142.21;100.00;112049.66;5050502;28;21029;-71
2022/09/25 07:35:06;;;;;;;6.17;3.20;;;17.70;83.50;;;-142.21;100.00;112049.66;5034027;28;20551;-71
2022/09/25 07:37:33;;;;;;;3.97;3.53;;;17.70;83.60;;;-142.21;100.00;112049.66;5048138;28;20444;-71
2022/09/25 07:40:01;;;;;;;3.50;3.20;;;17.70;83.20;;;-142.21;100.00;112049.66;5047712;28;20448;-71
2022/09/25 07:42:29;;;;;;;4.17;3.40;;;17.70;83.40;;;-142.21;100.00;112049.66;5049650;28;20476;-71
2022/09/25 07:44:57;;;;;;;4.00;3.60;;;17.70;83.70;;;-142.21;100.00;112049.66;5051858;28;20464;-71
2022/09/25 07:47:24;;;;;;;4.17;3.70;;;17.70;83.80;;;-142.21;100.00;112049.66;5053265;28;20448;-71
2022/09/25 07:49:51;;;;;;;3.73;3.43;;;17.70;83.50;;;-142.21;100.00;112049.66;5035513;28;20460;-71
2022/09/25 07:52:20;;;;;;;5.67;4.13;;;17.60;83.40;;;-142.21;100.00;112049.66;5035391;28;20461;-71
2022/09/25 07:54:47;;;;;;;5.13;3.87;;;17.60;83.90;;;-142.21;100.00;112049.66;5034252;28;20440;-71
2022/09/25 07:57:15;;;;;;;4.23;3.87;;;17.60;84.00;;;-142.21;100.00;112049.66;5051781;28;20548;-70
2022/09/25 07:59:42;;;;;;;4.23;3.83;;;17.60;83.90;;;-142.21;100.00;112049.66;5053879;28;20812;-71
2022/09/25 08:02:10;;;;;;;4.53;3.83;;;17.60;84.30;;;-142.21;100.00;112049.66;5052685;28;20483;-70
2022/09/25 08:04:37;;;;;;;4.13;3.73;;;17.70;84.30;;;-142.21;100.00;112049.66;5042386;28;20484;-72
2022/09/25 08:07:05;;;;;;;4.77;4.10;;;17.70;84.10;;;-142.21;100.00;112049.66;5049338;28;20773;-70
2022/09/25 08:09:33;;;;;;;4.63;4.10;;;17.80;84.00;;;-142.21;100.00;112049.66;5054174;28;20453;-71
2022/09/25 08:12:01;;;;;;;4.73;4.23;;;17.80;84.20;;;-142.21;100.00;112049.66;5052808;28;20461;-74
2022/09/25 08:14:28;;;;;;;6.03;4.37;;;17.80;84.10;;;-142.21;100.00;112049.66;5052495;28;20448;-75
2022/09/25 08:16:56;;;;;;;6.13;3.93;;;17.80;84.20;;;-142.21;100.00;112049.66;5049114;28;21164;-75
2022/09/25 08:19:24;;;;;;;4.70;3.77;;;17.80;84.10;;;-142.21;100.00;112049.66;5052200;28;20971;-77
2022/09/25 08:21:51;;;;;;;4.23;3.87;;;17.90;84.10;;;-142.21;100.00;112049.66;5039225;28;20455;-79
2022/09/25 08:24:19;;;;;;;5.37;4.30;;;17.90;84.00;;;-142.21;100.00;112049.66;5053331;28;21312;-79
2022/09/25 08:26:49;;;;;;;5.07;4.67;;;17.90;84.20;;;-142.21;100.00;112049.66;5054442;28;20444;-74
2022/09/25 08:29:16;;;;;;;5.30;4.63;;;17.90;83.90;;;-142.21;100.00;112049.66;5053278;28;20448;-77
2022/09/25 08:31:43;;;;;;;4.70;4.27;;;17.90;84.00;;;-142.21;100.00;112049.66;5054242;28;20514;-77
2022/09/25 08:34:12;;;;;;;4.80;4.17;;;17.90;83.70;;;-142.21;100.00;112049.66;5042243;28;20534;-77
2022/09/25 08:36:39;;;;;;;4.63;4.17;;;17.90;83.60;;;-142.21;100.00;112049.66;5043575;28;20484;-78
2022/09/25 08:39:07;;;;;;;4.77;4.37;;;17.90;83.60;;;-142.21;100.00;112049.66;5050119;28;20444;-76
2022/09/25 08:41:48;;;;;;;4.83;4.43;;;17.80;83.30;;;-142.21;100.00;112049.66;5041063;28;21001;-74
2022/09/25 08:44:26;;;;;;;6.17;4.53;;;17.80;83.80;;;-142.21;100.00;112049.66;5030230;28;20433;-74
2022/09/25 08:49:53;;;;;;;4.80;4.30;;;17.80;84.00;;;-142.21;100.00;112049.66;5035507;28;20909;-74
2022/09/25 08:52:21;;;;;;;5.70;4.90;;;17.70;84.10;;;-142.21;100.00;112049.66;5015427;28;20451;-74
2022/09/25 08:54:50;;;;;;;5.40;4.90;;;17.70;84.10;;;-142.21;100.00;112049.66;5051641;28;20534;-74
2022/09/25 08:57:30;;;;;;;6.10;5.50;;;17.70;84.40;;;-142.21;100.00;112049.66;5049756;28;20459;-75
2022/09/25 09:00:06;;;;;;;5.90;5.20;;;17.70;84.60;;;-142.21;100.00;112049.66;5068256;28;20522;-75
2022/09/25 09:02:41;;;;;;;6.90;5.63;;;17.70;84.80;;;-142.21;100.00;112049.66;5054356;28;20545;-75
2022/09/25 09:05:27;;;;;;;6.13;5.53;;;17.70;84.70;;;-142.21;100.00;112049.66;5050935;28;20439;-75
2022/09/25 09:07:59;;;;;;;5.87;5.27;;;17.70;84.80;;;-142.21;100.00;112049.66;5046385;28;20447;-74
2022/09/25 09:10:35;;;;;;;5.87;5.27;;;17.70;84.80;;;-142.21;100.00;112049.66;5005809;28;20524;-75
2022/09/25 09:13:17;;;;;;;7.63;6.53;;;17.70;84.90;;;-142.21;100.00;112049.66;5029897;28;20447;-79
2022/09/25 09:15:52;;;;;;;6.13;5.53;;;17.70;84.50;;;-142.21;100.00;112049.66;5051770;28;20486;-78
2022/09/25 09:18:25;;;;;;;6.23;5.63;;;17.70;84.90;;;-142.21;100.00;112049.66;5050590;28;20924;-79
2022/09/25 09:20:56;;;;;;;7.00;6.40;;;17.70;84.90;;;-142.21;100.00;112049.66;5050616;28;20619;-75
2022/09/25 09:23:32;;;;;;;6.70;6.10;;;17.70;84.70;;;-142.21;100.00;112049.66;5047216;28;20928;-75
2022/09/25 09:26:15;;;;;;;6.33;5.50;;;17.70;84.90;;;-142.21;100.00;112049.66;5046054;28;20523;-71
2022/09/25 09:29:20;;;;;;;6.80;5.93;;;17.70;84.80;;;-142.21;100.00;112049.66;5041786;28;20440;-72
2022/09/25 09:31:59;;;;;;;6.53;5.47;;;17.70;85.00;;;-142.21;100.00;112049.66;5038110;28;20547;-71
2022/09/25 09:34:56;;;;;;;5.73;5.23;;;17.70;84.80;;;-142.21;100.00;112049.66;5012905;28;20832;-71
2022/09/25 09:37:36;;;;;;;5.80;4.77;;;17.70;85.00;;;-142.21;100.00;112049.66;5035763;28;21285;-71
2022/09/25 09:40:25;;;;;;;5.20;4.70;;;17.70;85.10;;;-142.21;100.00;112049.66;5047438;28;20440;-71
2022/09/25 09:43:08;;;;;;;5.73;4.43;;;17.60;84.90;;;-142.21;100.00;112049.66;5050534;28;21149;-70
2022/09/25 09:45:46;;;;;;;5.97;5.10;;;17.70;84.90;;;-142.21;100.00;112049.66;5040268;28;20511;-71
2022/09/25 09:48:25;;;;;;;6.80;5.80;;;17.70;84.90;;;-142.21;100.00;112049.66;5060343;28;20522;-72
2022/09/25 09:50:59;;;;;;;5.47;4.97;;;17.70;84.70;;;-142.21;100.00;112049.66;5031401;28;20433;-72
2022/09/25 09:53:38;;;;;;;10.17;5.07;;;17.70;84.90;;;-142.21;100.00;112049.66;5050654;28;20440;-72
2022/09/25 09:56:14;;;;;;;5.77;5.17;;;17.80;85.10;;;-142.21;100.00;112049.66;5049888;28;20474;-72
2022/09/25 09:58:50;;;;;;;4.90;4.50;;;17.80;85.10;;;-142.21;100.00;112049.66;5051136;28;20471;-71
2022/09/25 10:01:24;;;;;;;5.47;4.97;;;17.80;84.60;;;-142.21;100.00;112049.66;5050457;28;20852;-71
2022/09/25 10:04:03;;;;;;;7.20;5.20;;;17.80;84.70;;;-142.21;100.00;112049.66;5031286;28;20531;-70
2022/09/25 10:06:37;;;;;;;5.80;5.20;;;17.80;85.50;;;-142.21;100.00;112049.66;5046797;28;20785;-70
2022/09/25 10:09:05;;;;;;;6.43;4.60;;;17.90;85.10;;;-142.21;100.00;112049.66;5050872;28;20460;-70
2022/09/25 10:11:34;;;;;;;5.53;5.03;;;17.90;85.00;;;-142.21;100.00;112049.66;5050315;28;20440;-70
2022/09/25 10:14:05;;;;;;;5.30;4.80;;;18.00;84.20;;;-142.21;100.00;112049.66;5050367;28;20440;-71
2022/09/25 10:16:35;;;;;;;5.57;5.07;;;18.10;84.10;;;-142.21;100.00;112049.66;5050437;28;20617;-71